Time;durP1;ratioP1;P1;durP2;ratioP2;P2;SDS_P1;SDS_P2;PMS_P1;PMS_P2;Temp;Humidity;BMP_temperature;BMP_pressure;BME280_temperature;BME280_humidity;BME280_pressure;Samples;Min_cycle;Max_cycle;Signal;HPM_P1;HPM_P2
2021/12/01 00:01:41;;;;;;;14.77;2.28;;;10.80;99.90;;;;;;5094915;28;20395;-78
2021/12/01 00:04:07;;;;;;;19.85;2.60;;;10.90;99.90;;;;;;5094357;28;20028;-77
2021/12/01 00:06:34;;;;;;;20.92;3.13;;;10.90;99.90;;;;;;5104164;28;20028;-77
2021/12/01 00:09:00;;;;;;;21.58;3.03;;;10.90;99.90;;;;;;5109276;28;20113;-78
2021/12/01 00:11:26;;;;;;;20.10;2.40;;;10.90;99.90;;;;;;5095557;28;20024;-78
2021/12/01 00:13:52;;;;;;;18.15;2.70;;;10.90;99.90;;;;;;5097734;28;20120;-77
2021/12/01 00:16:17;;;;;;;20.23;2.72;;;10.90;99.90;;;;;;5097086;28;20237;-77
2021/12/01 00:18:43;;;;;;;14.60;2.20;;;11.00;99.90;;;;;;5095152;28;20040;-77
2021/12/01 00:21:08;;;;;;;14.10;2.15;;;11.00;99.90;;;;;;5104702;28;20502;-77
2021/12/01 00:23:34;;;;;;;17.70;2.70;;;11.00;99.90;;;;;;5101003;28;20054;-78
2021/12/01 00:26:00;;;;;;;13.18;2.20;;;11.00;99.90;;;;;;5096659;28;20028;-79
2021/12/01 00:28:26;;;;;;;13.00;2.30;;;11.00;99.90;;;;;;5096602;28;20016;-77
2021/12/01 00:30:52;;;;;;;14.52;2.13;;;11.10;99.90;;;;;;5099711;28;20023;-76
2021/12/01 00:33:22;;;;;;;11.05;2.42;;;11.10;99.90;;;;;;5107359;28;20134;-78
2021/12/01 00:35:53;;;;;;;7.45;1.92;;;11.10;99.90;;;;;;5096207;28;20072;-78
2021/12/01 00:38:20;;;;;;;16.27;2.42;;;11.10;99.90;;;;;;5094160;28;20095;-77
2021/12/01 00:40:46;;;;;;;9.52;2.22;;;11.10;99.90;;;;;;5096398;28;20054;-77
2021/12/01 00:43:17;;;;;;;6.32;2.03;;;11.10;99.90;;;;;;5105856;28;20047;-77
2021/12/01 00:45:54;;;;;;;6.90;2.20;;;11.10;99.90;;;;;;5094392;28;20111;-77
2021/12/01 00:48:20;;;;;;;5.45;1.90;;;11.10;99.90;;;;;;5094511;28;20036;-77
2021/12/01 00:50:47;;;;;;;12.02;2.33;;;11.10;99.90;;;;;;5092965;28;20026;-76
2021/12/01 00:53:12;;;;;;;7.38;2.20;;;11.10;99.90;;;;;;5095829;28;21246;-77
2021/12/01 00:55:40;;;;;;;7.70;2.00;;;11.10;99.90;;;;;;5094224;28;20467;-77
2021/12/01 00:58:07;;;;;;;9.43;2.10;;;11.10;99.90;;;;;;5094481;28;20020;-77
2021/12/01 01:00:32;;;;;;;10.48;2.45;;;11.10;99.90;;;;;;5095207;28;20031;-77
2021/12/01 01:02:59;;;;;;;13.27;3.05;;;11.10;99.90;;;;;;5095047;28;20028;-76
2021/12/01 01:05:26;;;;;;;7.97;3.42;;;11.00;99.90;;;;;;5095212;28;20049;-77
2021/12/01 01:07:52;;;;;;;8.18;3.40;;;11.10;99.90;;;;;;5096258;28;20032;-77
2021/12/01 01:18:20;;;;;;;13.43;2.63;;;11.10;99.90;;;;;;5097517;28;20043;-77
2021/12/01 01:20:45;;;;;;;17.85;2.40;;;11.10;99.90;;;;;;5103239;28;20093;-76
2021/12/01 01:23:11;;;;;;;13.63;2.08;;;11.10;99.90;;;;;;5097548;28;20016;-78
2021/12/01 01:25:36;;;;;;;12.80;1.98;;;11.20;99.90;;;;;;5086224;28;20119;-77
2021/12/01 01:28:03;;;;;;;22.13;2.88;;;11.20;99.90;;;;;;5082823;28;20032;-77
2021/12/01 01:30:29;;;;;;;20.25;2.65;;;11.20;99.90;;;;;;5094896;28;20101;-77
2021/12/01 01:32:55;;;;;;;12.43;2.10;;;11.20;99.90;;;;;;5096126;28;20024;-77
2021/12/01 01:35:20;;;;;;;17.85;2.55;;;11.30;99.90;;;;;;5096758;28;20028;-77
2021/12/01 01:37:46;;;;;;;10.32;2.03;;;11.20;99.90;;;;;;5098416;28;20028;-77
2021/12/01 01:40:12;;;;;;;17.23;2.03;;;11.20;99.90;;;;;;5102873;28;20066;-77
2021/12/01 01:42:38;;;;;;;15.20;2.30;;;11.30;99.90;;;;;;5109356;28;20154;-77
2021/12/01 01:45:05;;;;;;;11.32;1.80;;;11.30;99.90;;;;;;5103951;28;20059;-77
2021/12/01 01:47:31;;;;;;;17.02;2.63;;;11.20;99.90;;;;;;5097758;28;20463;-77
2021/12/01 01:50:02;;;;;;;13.07;2.00;;;11.20;99.90;;;;;;5093393;28;20024;-77
2021/12/01 01:52:28;;;;;;;13.63;1.80;;;11.20;99.90;;;;;;5107167;28;20034;-77
2021/12/01 01:54:54;;;;;;;12.45;1.90;;;11.20;99.90;;;;;;5097994;28;20017;-76
2021/12/01 01:57:20;;;;;;;12.38;1.88;;;11.20;99.90;;;;;;5099983;28;20087;-76
2021/12/01 01:59:46;;;;;;;13.30;1.60;;;11.20;99.90;;;;;;5101920;28;20514;-78
2021/12/01 02:02:12;;;;;;;8.55;1.63;;;11.20;99.90;;;;;;5101394;28;20032;-77
2021/12/01 02:04:38;;;;;;;11.93;1.52;;;11.20;99.90;;;;;;5100260;28;20032;-77
2021/12/01 02:07:04;;;;;;;10.52;1.65;;;11.20;99.90;;;;;;5100357;28;20016;-77
2021/12/01 02:09:31;;;;;;;7.85;1.58;;;11.20;99.90;;;;;;5097896;28;20051;-77
2021/12/01 02:12:00;;;;;;;8.88;1.65;;;11.20;99.90;;;;;;5098031;28;20051;-77
2021/12/01 02:14:27;;;;;;;5.70;1.70;;;11.20;99.90;;;;;;5100191;28;20031;-77
2021/12/01 02:16:54;;;;;;;10.00;2.10;;;11.20;99.90;;;;;;5099921;28;20101;-77
2021/12/01 02:19:20;;;;;;;7.40;1.85;;;11.20;99.90;;;;;;5098110;28;20076;-77
2021/12/01 02:21:46;;;;;;;9.45;1.92;;;11.10;99.90;;;;;;5101534;28;20379;-77
2021/12/01 02:24:13;;;;;;;6.57;1.80;;;11.20;99.90;;;;;;5102285;28;20028;-77
2021/12/01 02:26:43;;;;;;;6.55;1.80;;;11.10;99.90;;;;;;5100296;28;20021;-77
2021/12/01 02:29:12;;;;;;;5.45;1.67;;;11.20;99.90;;;;;;5102992;28;20027;-77
2021/12/01 02:31:38;;;;;;;9.27;1.77;;;11.10;99.90;;;;;;5103770;28;20058;-77
2021/12/01 02:34:10;;;;;;;5.97;1.80;;;11.10;99.90;;;;;;5105415;28;20031;-77
2021/12/01 02:36:37;;;;;;;3.67;1.40;;;11.10;99.90;;;;;;5104184;28;20043;-77
2021/12/01 02:39:11;;;;;;;5.07;1.30;;;11.10;99.90;;;;;;5106012;28;20044;-76
2021/12/01 02:41:37;;;;;;;5.55;1.50;;;11.10;99.90;;;;;;5103157;28;20050;-77
2021/12/01 02:44:05;;;;;;;6.95;1.30;;;11.00;99.90;;;;;;5106038;28;20024;-77
2021/12/01 02:46:31;;;;;;;3.30;1.60;;;11.10;99.90;;;;;;5105474;28;20050;-77
2021/12/01 02:48:57;;;;;;;6.93;1.50;;;11.00;99.90;;;;;;5107868;28;20024;-76
2021/12/01 02:51:28;;;;;;;4.00;2.08;;;11.00;99.90;;;;;;5117785;28;20019;-77
2021/12/01 02:53:55;;;;;;;3.45;1.92;;;10.90;99.90;;;;;;5115668;28;20031;-76
2021/12/01 02:56:22;;;;;;;3.80;2.30;;;10.80;99.90;;;;;;5115975;28;20023;-78
2021/12/01 02:58:48;;;;;;;5.43;2.65;;;10.80;99.90;;;;;;5102853;28;20414;-78
2021/12/01 03:01:17;;;;;;;3.08;2.60;;;10.70;99.90;;;;;;5103811;28;20021;-76
2021/12/01 03:03:43;;;;;;;3.70;2.90;;;10.70;99.90;;;;;;5106600;28;20065;-77
2021/12/01 03:06:10;;;;;;;4.28;2.90;;;10.70;99.90;;;;;;5105507;28;20020;-76
2021/12/01 03:08:36;;;;;;;5.97;3.25;;;10.60;99.90;;;;;;5100775;28;20024;-76
2021/12/01 03:11:03;;;;;;;4.88;3.03;;;10.60;99.90;;;;;;5098336;28;20386;-76
2021/12/01 03:13:28;;;;;;;6.10;2.88;;;10.60;99.90;;;;;;5096618;28;20501;-76
2021/12/01 03:15:54;;;;;;;4.13;3.30;;;10.50;99.90;;;;;;5094948;28;20115;-76
2021/12/01 03:18:21;;;;;;;4.28;3.45;;;10.50;99.90;;;;;;5095992;28;20074;-76
2021/12/01 03:20:48;;;;;;;6.28;3.88;;;10.50;99.90;;;;;;5095030;28;20097;-75
2021/12/01 03:23:14;;;;;;;5.85;4.18;;;10.50;99.90;;;;;;5096124;28;20032;-76
2021/12/01 03:25:40;;;;;;;7.35;4.60;;;10.50;99.90;;;;;;5097386;28;20211;-75
2021/12/01 03:28:07;;;;;;;7.05;4.78;;;10.40;99.90;;;;;;5096737;28;20421;-76
2021/12/01 03:30:37;;;;;;;11.45;4.53;;;10.40;99.90;;;;;;5093088;28;20060;-75
2021/12/01 03:33:15;;;;;;;8.50;4.70;;;10.40;99.90;;;;;;5095152;28;20031;-77
2021/12/01 03:35:43;;;;;;;6.75;4.40;;;10.40;99.90;;;;;;5103160;28;20499;-77
2021/12/01 03:38:09;;;;;;;8.40;3.55;;;10.40;99.90;;;;;;5093554;28;20036;-78
2021/12/01 03:40:34;;;;;;;6.53;3.45;;;10.30;99.90;;;;;;5101194;28;20161;-77
2021/12/01 03:43:00;;;;;;;5.85;3.25;;;10.30;99.90;;;;;;5099874;28;20032;-77
2021/12/01 03:45:26;;;;;;;5.53;3.35;;;10.20;99.90;;;;;;5097303;28;20368;-78
2021/12/01 03:47:52;;;;;;;6.85;3.67;;;10.20;99.90;;;;;;5098051;28;20386;-77
2021/12/01 03:50:18;;;;;;;6.15;3.50;;;10.10;99.90;;;;;;5099541;28;20036;-78
2021/12/01 03:52:44;;;;;;;7.05;4.07;;;10.10;99.90;;;;;;5099331;28;20028;-77
2021/12/01 03:55:10;;;;;;;6.30;4.03;;;10.10;99.90;;;;;;5096494;28;20039;-77
2021/12/01 03:57:36;;;;;;;6.10;4.53;;;10.00;99.90;;;;;;5099626;28;20077;-77
2021/12/01 04:00:05;;;;;;;5.70;4.57;;;10.00;99.90;;;;;;5096335;28;20082;-77
2021/12/01 04:02:30;;;;;;;7.15;4.65;;;10.00;99.90;;;;;;5096417;28;20026;-77
2021/12/01 04:04:56;;;;;;;8.85;5.25;;;10.00;99.90;;;;;;5095929;28;20390;-77
2021/12/01 04:07:21;;;;;;;9.13;4.82;;;9.90;99.90;;;;;;5095989;28;20020;-77
2021/12/01 04:09:47;;;;;;;8.82;5.78;;;9.90;99.90;;;;;;5095415;28;20043;-78
2021/12/01 04:12:13;;;;;;;7.82;5.30;;;9.90;99.90;;;;;;5099806;28;20028;-77
2021/12/01 04:14:39;;;;;;;5.25;4.57;;;9.90;99.90;;;;;;5102436;28;20027;-77
2021/12/01 04:17:05;;;;;;;7.93;5.30;;;9.90;99.90;;;;;;5102904;28;20020;-77
2021/12/01 04:19:31;;;;;;;6.93;5.15;;;9.90;99.90;;;;;;5098709;28;20040;-77
2021/12/01 04:21:57;;;;;;;6.05;5.20;;;9.90;99.90;;;;;;5098611;28;20020;-77
2021/12/01 04:24:22;;;;;;;6.10;5.15;;;9.90;99.90;;;;;;5097147;28;20047;-78
2021/12/01 04:26:48;;;;;;;8.98;6.25;;;9.90;99.90;;;;;;5097039;28;20028;-78
2021/12/01 04:29:14;;;;;;;8.93;5.28;;;9.90;99.90;;;;;;5099642;28;20028;-77
2021/12/01 04:31:40;;;;;;;7.00;4.97;;;9.90;99.90;;;;;;5100880;28;20051;-78
2021/12/01 04:34:06;;;;;;;7.30;5.00;;;9.90;99.90;;;;;;5105403;28;20016;-77
2021/12/01 04:36:35;;;;;;;7.10;5.47;;;9.90;99.90;;;;;;5106499;28;20038;-77
2021/12/01 04:39:05;;;;;;;5.88;4.95;;;9.90;99.90;;;;;;5107263;28;20024;-77
2021/12/01 04:41:37;;;;;;;6.90;4.82;;;9.90;99.90;;;;;;5103100;28;20024;-78
2021/12/01 04:44:08;;;;;;;7.45;5.20;;;9.90;99.90;;;;;;5103214;28;20095;-76
2021/12/01 04:46:40;;;;;;;7.05;5.30;;;9.90;99.90;;;;;;5099191;28;20075;-77
2021/12/01 04:49:06;;;;;;;7.65;5.35;;;9.90;99.90;;;;;;5101316;28;20375;-78
2021/12/01 04:51:32;;;;;;;7.82;5.93;;;9.90;99.90;;;;;;5100858;28;20028;-77
2021/12/01 04:53:59;;;;;;;10.90;5.78;;;9.90;99.90;;;;;;5099805;28;20112;-77
2021/12/01 04:56:25;;;;;;;6.90;5.45;;;9.90;99.90;;;;;;5101156;28;20115;-77
2021/12/01 04:58:50;;;;;;;6.78;5.70;;;9.90;99.90;;;;;;5098741;28;20048;-77
2021/12/01 05:01:17;;;;;;;6.97;5.57;;;9.90;99.90;;;;;;5101245;28;20020;-76
2021/12/01 05:03:43;;;;;;;8.02;5.65;;;9.90;99.90;;;;;;5100380;28;20008;-77
2021/12/01 05:06:12;;;;;;;6.70;5.97;;;9.90;99.90;;;;;;5102558;28;20024;-77
2021/12/01 05:08:38;;;;;;;6.05;5.38;;;9.90;99.90;;;;;;5103246;28;20031;-77
2021/12/01 05:11:03;;;;;;;10.57;5.10;;;9.90;99.90;;;;;;5101727;28;20028;-77
2021/12/01 05:13:29;;;;;;;6.50;5.38;;;9.90;99.90;;;;;;5104648;28;20020;-77
2021/12/01 05:15:54;;;;;;;9.18;4.57;;;9.80;99.90;;;;;;5100091;28;20020;-77
2021/12/01 05:18:20;;;;;;;7.07;4.82;;;9.90;99.90;;;;;;5103821;28;20405;-78
2021/12/01 05:20:45;;;;;;;7.53;4.68;;;9.90;99.90;;;;;;5101249;28;20066;-77
2021/12/01 05:23:15;;;;;;;5.10;4.40;;;9.90;99.90;;;;;;5101179;28;20028;-77
2021/12/01 05:25:44;;;;;;;9.13;4.40;;;9.90;99.90;;;;;;5083678;28;20021;-77
2021/12/01 05:28:09;;;;;;;8.63;4.78;;;9.90;99.90;;;;;;5076476;28;20016;-77
2021/12/01 05:30:35;;;;;;;6.75;4.18;;;9.90;99.90;;;;;;5077340;28;20020;-77
2021/12/01 05:33:06;;;;;;;7.55;3.92;;;9.90;99.90;;;;;;5081611;28;20363;-77
2021/12/01 05:35:33;;;;;;;4.93;3.30;;;9.90;99.90;;;;;;5094661;28;20039;-77
2021/12/01 05:37:59;;;;;;;6.72;3.00;;;9.90;99.90;;;;;;5092366;28;20035;-77
2021/12/01 05:40:24;;;;;;;4.63;2.65;;;9.90;99.90;;;;;;5093251;28;20028;-77
2021/12/01 05:42:50;;;;;;;3.03;2.50;;;9.90;99.90;;;;;;5093820;28;20111;-77
2021/12/01 05:45:16;;;;;;;4.85;2.53;;;9.90;99.90;;;;;;5094389;28;20535;-77
2021/12/01 05:47:42;;;;;;;4.30;2.40;;;9.90;99.90;;;;;;5096906;28;20048;-77
2021/12/01 05:50:08;;;;;;;6.47;2.60;;;9.90;99.90;;;;;;5089391;28;20569;-77
2021/12/01 05:52:34;;;;;;;4.75;2.50;;;9.90;99.90;;;;;;5093321;28;20028;-76
2021/12/01 05:54:59;;;;;;;4.22;2.78;;;9.90;99.90;;;;;;5082888;28;20404;-77
2021/12/01 05:57:25;;;;;;;4.03;2.88;;;10.00;99.90;;;;;;5075498;28;20025;-76
2021/12/01 05:59:51;;;;;;;6.57;3.35;;;9.90;99.90;;;;;;5071198;28;20033;-76
2021/12/01 06:02:16;;;;;;;6.75;3.47;;;10.00;99.90;;;;;;5077682;28;20099;-76
2021/12/01 06:04:42;;;;;;;5.93;3.30;;;10.00;99.90;;;;;;5080226;28;20486;-75
2021/12/01 06:07:08;;;;;;;7.10;3.10;;;10.00;99.90;;;;;;5075806;28;20589;-76
2021/12/01 06:09:34;;;;;;;9.32;3.35;;;10.00;99.90;;;;;;5074031;28;20040;-76
2021/12/01 06:12:00;;;;;;;8.10;4.43;;;10.00;99.90;;;;;;5088749;28;20040;-75
2021/12/01 06:14:27;;;;;;;9.63;4.63;;;10.00;99.90;;;;;;5084299;28;20050;-76
2021/12/01 06:16:53;;;;;;;10.93;4.43;;;10.00;99.90;;;;;;5073455;28;20348;-77
2021/12/01 06:19:19;;;;;;;9.23;3.67;;;10.00;99.90;;;;;;5070179;28;20594;-75
2021/12/01 06:21:45;;;;;;;7.50;2.95;;;10.00;99.90;;;;;;5077194;28;20371;-77
2021/12/01 06:24:10;;;;;;;4.78;2.67;;;10.00;99.90;;;;;;5073139;28;20016;-77
2021/12/01 06:26:36;;;;;;;5.95;3.33;;;10.00;99.90;;;;;;5075343;28;20017;-78
2021/12/01 06:29:03;;;;;;;5.85;2.90;;;10.00;99.90;;;;;;5091456;28;20042;-76
2021/12/01 06:31:28;;;;;;;9.57;3.20;;;10.00;99.90;;;;;;5095474;28;20040;-75
2021/12/01 06:33:54;;;;;;;7.28;2.80;;;10.00;99.90;;;;;;5087871;28;20036;-75
2021/12/01 06:36:19;;;;;;;7.25;2.90;;;10.00;99.90;;;;;;5094474;28;20099;-75
2021/12/01 06:38:45;;;;;;;6.68;2.60;;;10.00;99.90;;;;;;5094858;28;20379;-75
2021/12/01 06:41:11;;;;;;;9.32;2.30;;;10.00;99.90;;;;;;5093774;28;20035;-75
2021/12/01 06:43:36;;;;;;;6.53;2.10;;;9.90;99.90;;;;;;5092460;28;20470;-75
2021/12/01 06:46:02;;;;;;;8.27;2.40;;;9.90;99.90;;;;;;5090994;28;20023;-76
2021/12/01 06:48:27;;;;;;;6.53;2.30;;;10.00;99.90;;;;;;5092684;28;20027;-76
2021/12/01 06:50:53;;;;;;;6.53;2.75;;;10.00;99.90;;;;;;5087533;28;20032;-76
2021/12/01 06:53:19;;;;;;;10.55;2.55;;;10.00;99.90;;;;;;5085739;28;20429;-76
2021/12/01 06:55:44;;;;;;;6.78;2.58;;;10.00;99.90;;;;;;5091534;28;20501;-76
2021/12/01 06:58:11;;;;;;;8.40;2.53;;;10.00;99.90;;;;;;5091753;28;20359;-76
2021/12/01 07:00:37;;;;;;;9.15;2.53;;;10.00;99.90;;;;;;5091964;28;20020;-76
2021/12/01 07:03:03;;;;;;;8.00;2.75;;;10.00;99.90;;;;;;5090572;28;20020;-76
2021/12/01 07:05:28;;;;;;;9.02;3.03;;;10.00;99.90;;;;;;5090613;28;20024;-76
2021/12/01 07:07:54;;;;;;;8.63;3.17;;;10.00;99.90;;;;;;5074924;28;20020;-76
2021/12/01 07:10:20;;;;;;;14.30;3.53;;;10.00;99.90;;;;;;5084628;28;20432;-75
2021/12/01 07:12:46;;;;;;;13.98;3.25;;;10.10;99.90;;;;;;5087003;28;20031;-75
2021/12/01 07:15:12;;;;;;;8.60;2.92;;;10.00;99.90;;;;;;5090456;28;20027;-76
2021/12/01 07:17:39;;;;;;;13.98;3.30;;;10.10;99.90;;;;;;5081633;28;20104;-76
2021/12/01 07:20:06;;;;;;;12.77;2.97;;;10.10;99.90;;;;;;5075402;28;20395;-76
2021/12/01 07:22:31;;;;;;;15.77;3.05;;;10.10;99.90;;;;;;5084958;28;20020;-76
2021/12/01 07:24:57;;;;;;;14.85;2.95;;;10.10;99.90;;;;;;5090781;28;20107;-76
2021/12/01 07:27:23;;;;;;;15.63;3.08;;;10.10;99.90;;;;;;5074598;28;20024;-76
2021/12/01 07:29:48;;;;;;;13.45;2.75;;;10.10;99.90;;;;;;5075367;28;20031;-75
2021/12/01 07:32:14;;;;;;;22.40;3.42;;;10.10;99.90;;;;;;5087377;28;20028;-75
2021/12/01 07:34:42;;;;;;;12.25;3.15;;;10.10;99.90;;;;;;5083124;28;20029;-74
2021/12/01 07:37:09;;;;;;;12.73;3.10;;;10.10;99.90;;;;;;5093064;28;20020;-74
2021/12/01 07:39:34;;;;;;;17.45;3.17;;;10.10;99.90;;;;;;5093309;28;20791;-75
2021/12/01 07:42:00;;;;;;;16.63;3.40;;;10.10;99.90;;;;;;5092857;28;20032;-75
2021/12/01 07:44:25;;;;;;;19.90;3.70;;;10.10;99.90;;;;;;5089451;28;20051;-75
2021/12/01 07:46:51;;;;;;;23.95;3.83;;;10.10;99.90;;;;;;5091516;28;20038;-76
2021/12/01 07:49:19;;;;;;;19.60;3.67;;;10.10;99.90;;;;;;5091659;28;20051;-76
2021/12/01 07:51:45;;;;;;;17.80;3.28;;;10.10;99.90;;;;;;5090931;28;20424;-75
2021/12/01 07:54:10;;;;;;;13.45;2.30;;;10.10;99.90;;;;;;5091410;28;20052;-75
2021/12/01 07:56:36;;;;;;;16.30;2.28;;;10.10;99.90;;;;;;5108217;28;20059;-75
2021/12/01 07:59:02;;;;;;;14.50;1.90;;;10.00;99.90;;;;;;5086701;28;20038;-75
2021/12/01 08:01:28;;;;;;;11.15;1.73;;;9.90;99.90;;;;;;5090739;28;20030;-75
2021/12/01 08:03:53;;;;;;;9.60;1.90;;;9.90;99.90;;;;;;5090445;28;20024;-75
2021/12/01 08:06:19;;;;;;;10.00;1.58;;;9.90;99.90;;;;;;5089875;28;20081;-76
2021/12/01 08:08:45;;;;;;;16.35;2.15;;;9.80;99.90;;;;;;5081161;28;20032;-75
2021/12/01 08:11:11;;;;;;;16.25;1.73;;;9.70;99.90;;;;;;5074480;28;20033;-75
2021/12/01 08:13:36;;;;;;;13.27;2.05;;;9.70;99.90;;;;;;5079128;28;20360;-74
2021/12/01 08:16:02;;;;;;;10.85;1.85;;;9.60;99.90;;;;;;5093136;28;20038;-75
2021/12/01 08:18:28;;;;;;;12.35;1.80;;;9.60;99.90;;;;;;5091978;28;20051;-75
2021/12/01 08:20:54;;;;;;;14.15;2.25;;;9.60;99.90;;;;;;5094148;28;20044;-75
2021/12/01 08:23:19;;;;;;;14.88;2.08;;;9.50;99.90;;;;;;5091025;28;20028;-75
2021/12/01 08:25:45;;;;;;;14.70;1.90;;;9.50;99.90;;;;;;5090016;28;20024;-75
2021/12/01 08:28:10;;;;;;;15.88;1.98;;;9.50;99.90;;;;;;5087310;28;20020;-76
2021/12/01 08:30:36;;;;;;;15.35;2.35;;;9.50;99.90;;;;;;5087751;28;20232;-75
2021/12/01 08:33:02;;;;;;;13.40;1.88;;;9.50;99.90;;;;;;5089644;28;20027;-75
2021/12/01 08:35:28;;;;;;;18.13;1.88;;;9.50;99.90;;;;;;5085624;28;20495;-76
2021/12/01 08:37:55;;;;;;;6.50;1.10;;;9.50;99.90;;;;;;5091841;28;20028;-75
2021/12/01 08:40:20;;;;;;;8.77;1.35;;;9.50;99.90;;;;;;5090805;28;20032;-76
2021/12/01 08:42:46;;;;;;;12.55;1.30;;;9.50;99.90;;;;;;5090419;28;20535;-76
2021/12/01 08:45:13;;;;;;;11.02;1.42;;;9.50;99.90;;;;;;5089886;28;20028;-75
2021/12/01 08:47:38;;;;;;;12.23;1.50;;;9.50;99.90;;;;;;5089953;28;20036;-75
2021/12/01 08:50:07;;;;;;;10.57;1.52;;;9.50;99.90;;;;;;5089871;28;20046;-75
2021/12/01 08:52:33;;;;;;;12.38;1.42;;;9.50;99.90;;;;;;5080569;28;20024;-75
2021/12/01 08:54:59;;;;;;;11.20;1.75;;;9.50;99.90;;;;;;5090650;28;20022;-76
2021/12/01 08:57:24;;;;;;;9.52;1.55;;;9.50;99.90;;;;;;5089156;28;20103;-75
2021/12/01 08:59:50;;;;;;;7.43;1.27;;;9.50;99.90;;;;;;5090317;28;20390;-76
2021/12/01 09:02:17;;;;;;;7.90;1.17;;;9.50;99.90;;;;;;5090528;28;20542;-75
2021/12/01 09:04:42;;;;;;;12.85;1.58;;;9.40;99.90;;;;;;5090370;28;20431;-76
2021/12/01 09:07:08;;;;;;;10.52;1.35;;;9.30;99.90;;;;;;5089744;28;20103;-76
2021/12/01 09:09:34;;;;;;;11.38;1.40;;;9.30;99.90;;;;;;5090554;28;20504;-76
2021/12/01 09:11:59;;;;;;;8.73;1.27;;;9.30;99.90;;;;;;5090258;28;20024;-75
2021/12/01 09:14:26;;;;;;;12.68;1.60;;;9.30;99.90;;;;;;5089712;28;20063;-75
2021/12/01 09:16:55;;;;;;;8.48;1.50;;;9.30;99.90;;;;;;5083593;28;20476;-76
2021/12/01 09:19:21;;;;;;;10.63;1.50;;;9.30;99.90;;;;;;5080286;28;20135;-75
2021/12/01 09:21:47;;;;;;;14.20;2.05;;;9.20;99.90;;;;;;5083212;28;20012;-76
2021/12/01 09:24:14;;;;;;;7.80;1.73;;;9.10;99.90;;;;;;5082368;28;20016;-75
2021/12/01 09:26:41;;;;;;;4.43;1.58;;;9.10;99.90;;;;;;5072816;28;20086;-76
2021/12/01 09:29:07;;;;;;;9.75;1.77;;;9.00;99.90;;;;;;5077569;28;20016;-76
2021/12/01 09:31:32;;;;;;;9.55;2.03;;;9.00;99.90;;;;;;5076406;28;20020;-76
2021/12/01 09:33:58;;;;;;;9.80;1.85;;;9.00;99.90;;;;;;5076214;28;20029;-76
2021/12/01 09:36:24;;;;;;;11.32;2.30;;;8.90;99.90;;;;;;5078338;28;20020;-75
2021/12/01 09:38:50;;;;;;;13.07;2.08;;;8.90;99.90;;;;;;5091846;28;20020;-75
2021/12/01 09:41:16;;;;;;;13.38;2.10;;;8.90;99.90;;;;;;5088620;28;20071;-76
2021/12/01 09:43:41;;;;;;;15.48;1.90;;;8.90;99.90;;;;;;5079625;28;20762;-76
2021/12/01 09:46:09;;;;;;;10.40;2.05;;;9.00;99.90;;;;;;5083445;28;20036;-76
2021/12/01 09:48:37;;;;;;;13.85;1.73;;;9.00;99.90;;;;;;5082335;28;20461;-76
2021/12/01 09:51:03;;;;;;;11.82;1.88;;;9.00;99.90;;;;;;5076617;28;20028;-75
2021/12/01 09:53:29;;;;;;;12.02;2.00;;;9.10;99.90;;;;;;5081964;28;20081;-75
2021/12/01 09:55:54;;;;;;;11.43;1.52;;;9.10;99.90;;;;;;5087338;28;20066;-76
2021/12/01 09:58:30;;;;;;;7.72;1.65;;;9.10;99.90;;;;;;5090858;28;20673;-76
2021/12/01 10:00:58;;;;;;;11.50;1.80;;;9.10;99.90;;;;;;5084623;28;20043;-76
2021/12/01 10:03:24;;;;;;;12.88;1.80;;;9.10;99.90;;;;;;5093207;28;20020;-75
2021/12/01 10:05:53;;;;;;;11.35;1.92;;;9.00;99.90;;;;;;5092553;28;20034;-76
2021/12/01 10:08:22;;;;;;;12.18;1.80;;;9.00;99.90;;;;;;5092826;28;20047;-76
2021/12/01 10:10:48;;;;;;;15.07;2.10;;;9.00;99.90;;;;;;5085554;28;20023;-76
2021/12/01 10:13:15;;;;;;;13.05;2.35;;;9.00;99.90;;;;;;5090027;28;20024;-76
2021/12/01 10:15:41;;;;;;;14.02;2.30;;;9.00;99.90;;;;;;5087751;28;20039;-76
2021/12/01 10:18:12;;;;;;;14.00;2.25;;;9.00;99.90;;;;;;5083489;28;20024;-75
2021/12/01 10:20:38;;;;;;;19.02;2.47;;;9.00;99.90;;;;;;5086812;28;20157;-76
2021/12/01 10:23:11;;;;;;;17.13;2.47;;;9.00;99.90;;;;;;5085821;28;20076;-76
2021/12/01 10:25:38;;;;;;;14.43;1.85;;;9.10;99.90;;;;;;5096993;28;20036;-75
2021/12/01 10:28:03;;;;;;;20.52;1.92;;;9.10;99.90;;;;;;5089250;28;20072;-76
2021/12/01 10:30:44;;;;;;;13.88;1.90;;;9.20;99.90;;;;;;5083798;28;20033;-75
2021/12/01 10:33:13;;;;;;;18.30;2.20;;;9.20;99.90;;;;;;5083273;28;20028;-75
2021/12/01 10:35:40;;;;;;;10.18;1.73;;;9.30;99.90;;;;;;5085410;28;20020;-76
2021/12/01 10:38:07;;;;;;;13.52;2.05;;;9.30;99.90;;;;;;5092111;28;20550;-76
2021/12/01 10:40:37;;;;;;;18.95;1.90;;;9.40;99.90;;;;;;5081117;28;20030;-75
2021/12/01 10:43:14;;;;;;;12.77;2.00;;;9.40;99.90;;;;;;5073880;28;20107;-75
2021/12/01 10:45:46;;;;;;;11.95;1.67;;;9.40;99.90;;;;;;5078025;28;20489;-75
2021/12/01 10:48:26;;;;;;;12.52;2.08;;;9.50;99.90;;;;;;5082853;28;20019;-75
2021/12/01 10:50:51;;;;;;;14.90;2.13;;;9.50;99.90;;;;;;5076318;28;20040;-76
2021/12/01 10:53:19;;;;;;;17.33;2.22;;;9.50;99.90;;;;;;5085711;28;20042;-76
2021/12/01 10:55:51;;;;;;;19.23;1.88;;;9.50;99.90;;;;;;5091664;28;20016;-76
2021/12/01 10:58:17;;;;;;;11.35;1.70;;;9.60;99.90;;;;;;5092859;28;20032;-76
2021/12/01 11:00:46;;;;;;;15.65;2.28;;;9.60;99.90;;;;;;5092928;28;20024;-76
2021/12/01 11:03:16;;;;;;;12.07;1.77;;;9.60;99.90;;;;;;5077463;28;20383;-76
2021/12/01 11:05:48;;;;;;;11.15;1.60;;;9.60;99.90;;;;;;5071011;28;20047;-76
2021/12/01 11:08:31;;;;;;;11.90;2.17;;;9.60;99.90;;;;;;5071459;28;20024;-76
2021/12/01 11:11:04;;;;;;;10.95;1.70;;;9.60;99.90;;;;;;5092516;28;20036;-75
2021/12/01 11:13:30;;;;;;;7.65;1.40;;;9.60;99.90;;;;;;5094223;28;20024;-75
2021/12/01 11:16:01;;;;;;;12.18;1.65;;;9.60;99.90;;;;;;5088344;28;20379;-75
2021/12/01 11:18:30;;;;;;;11.65;1.95;;;9.60;99.90;;;;;;5084405;28;20485;-77
2021/12/01 11:20:58;;;;;;;14.30;2.25;;;9.60;99.90;;;;;;5083456;28;20044;-76
2021/12/01 11:23:29;;;;;;;11.10;1.38;;;9.60;99.90;;;;;;5083758;28;20140;-78
2021/12/01 11:25:58;;;;;;;9.93;1.98;;;9.60;99.90;;;;;;5084445;28;20391;-76
2021/12/01 11:28:26;;;;;;;11.45;2.05;;;9.60;99.90;;;;;;5084309;28;20024;-76
2021/12/01 11:30:56;;;;;;;12.32;1.70;;;9.60;99.90;;;;;;5088643;28;20036;-77
2021/12/01 11:33:23;;;;;;;21.20;2.17;;;9.60;99.90;;;;;;5092880;28;20066;-76
2021/12/01 11:36:07;;;;;;;8.40;1.42;;;9.60;99.90;;;;;;5089454;28;20042;-77
2021/12/01 11:38:34;;;;;;;13.80;1.73;;;9.60;99.90;;;;;;5091122;28;20036;-77
2021/12/01 11:41:00;;;;;;;38.85;18.25;;;9.60;99.90;;;;;;5093452;28;20436;-76
2021/12/01 11:43:28;;;;;;;37.70;16.50;;;9.60;99.90;;;;;;5086774;28;20032;-76
2021/12/01 11:45:55;;;;;;;7.70;1.88;;;9.60;99.90;;;;;;5086373;28;20020;-76
2021/12/01 11:48:48;;;;;;;12.52;2.00;;;9.70;99.90;;;;;;5084525;28;20379;-76
2021/12/01 11:51:22;;;;;;;12.82;2.05;;;9.70;99.90;;;;;;5084229;28;20060;-76
2021/12/01 11:54:12;;;;;;;15.15;1.90;;;9.60;99.90;;;;;;5083232;28;20557;-76
2021/12/01 11:56:47;;;;;;;12.70;1.58;;;9.60;99.90;;;;;;5077745;28;20078;-75
2021/12/01 11:59:15;;;;;;;12.63;1.83;;;9.70;99.90;;;;;;5076585;28;20042;-75
2021/12/01 12:01:45;;;;;;;18.67;2.15;;;9.70;99.90;;;;;;5081769;28;20024;-76
2021/12/01 12:04:18;;;;;;;14.32;2.03;;;9.70;99.90;;;;;;5084968;28;20105;-77
2021/12/01 12:06:49;;;;;;;15.82;1.50;;;9.70;99.90;;;;;;5081366;28;20081;-76
2021/12/01 12:09:18;;;;;;;11.52;1.45;;;9.70;99.90;;;;;;5082211;28;20106;-76
2021/12/01 12:11:57;;;;;;;6.78;1.40;;;9.70;99.90;;;;;;5076919;28;20034;-76
2021/12/01 12:14:30;;;;;;;8.45;1.50;;;9.70;99.90;;;;;;5074618;28;20028;-76
2021/12/01 12:17:18;;;;;;;12.32;1.58;;;9.70;99.90;;;;;;5080103;28;20082;-76
2021/12/01 12:22:16;;;;;;;17.52;1.80;;;9.70;99.90;;;;;;5078731;28;20671;-76
2021/12/01 12:24:53;;;;;;;9.68;1.90;;;9.80;99.90;;;;;;5082506;28;20073;-76
2021/12/01 12:27:37;;;;;;;7.75;1.58;;;9.80;99.90;;;;;;5074177;28;20459;-76
2021/12/01 12:30:11;;;;;;;13.65;2.30;;;9.80;99.90;;;;;;5069973;28;20138;-76
2021/12/01 12:32:38;;;;;;;14.00;1.95;;;9.80;99.90;;;;;;5082067;28;20576;-76
2021/12/01 12:35:12;;;;;;;13.85;1.98;;;9.80;99.90;;;;;;5082398;28;20104;-76
2021/12/01 12:37:39;;;;;;;11.02;1.80;;;9.80;99.90;;;;;;5078945;28;20035;-76
2021/12/01 12:40:29;;;;;;;13.70;2.17;;;9.90;99.90;;;;;;5081583;28;20082;-76
2021/12/01 12:43:25;;;;;;;12.77;1.90;;;9.90;99.90;;;;;;5078927;28;20039;-76
2021/12/01 12:46:19;;;;;;;12.43;2.20;;;9.90;99.90;;;;;;5075398;28;20044;-76
2021/12/01 12:48:49;;;;;;;11.38;1.77;;;9.90;99.90;;;;;;5072377;28;20106;-76
2021/12/01 12:51:33;;;;;;;11.77;2.10;;;9.90;99.90;;;;;;5079464;28;20013;-76
2021/12/01 12:54:03;;;;;;;17.48;2.22;;;9.90;99.90;;;;;;5078675;28;20782;-76
2021/12/01 12:56:32;;;;;;;14.80;1.95;;;9.90;99.90;;;;;;5080199;28;20020;-76
2021/12/01 12:59:19;;;;;;;14.40;1.88;;;9.90;99.90;;;;;;5078762;28;20162;-76
2021/12/01 13:01:46;;;;;;;15.15;2.13;;;9.90;99.90;;;;;;5078598;28;20490;-76